createdAt,value
2022-11-21T00:01:32.236Z,-14.93
2022-11-21T00:04:01.351Z,-15.07
2022-11-21T00:06:30.225Z,-14.95
2022-11-21T00:08:58.939Z,-14.97
2022-11-21T00:11:27.718Z,-14.96
2022-11-21T00:13:56.457Z,-14.86
2022-11-21T00:16:25.147Z,-14.85
2022-11-21T00:18:53.866Z,-14.88
2022-11-21T00:21:22.687Z,-14.93
2022-11-21T00:23:53.479Z,-15.08
2022-11-21T00:26:22.357Z,-15.10
2022-11-21T00:28:51.113Z,-15.11
2022-11-21T00:31:22.159Z,-15.15
2022-11-21T00:33:51.253Z,-15.15
2022-11-21T00:36:20.100Z,-15.09
2022-11-21T00:38:49.030Z,-15.13
2022-11-21T00:41:17.936Z,-15.09
2022-11-21T00:43:46.658Z,-15.15
2022-11-21T00:46:15.369Z,-15.09
2022-11-21T00:48:44.112Z,-15.05
2022-11-21T00:51:12.862Z,-15.05
2022-11-21T00:53:41.873Z,-15.05
2022-11-21T00:56:10.917Z,-15.03
2022-11-21T00:58:39.876Z,-14.97
2022-11-21T01:01:13.228Z,-14.91
2022-11-21T01:03:42.817Z,-14.93
2022-11-21T01:06:14.201Z,-14.86
2022-11-21T01:08:45.591Z,-14.86
2022-11-21T01:11:20.732Z,-14.88
2022-11-21T01:13:50.299Z,-14.83
2022-11-21T01:16:22.594Z,-14.84
2022-11-21T01:18:51.564Z,-14.80
2022-11-21T01:21:23.605Z,-14.72
2022-11-21T01:23:53.215Z,-14.71
2022-11-21T01:26:24.226Z,-14.74
2022-11-21T01:28:53.740Z,-14.80
2022-11-21T01:31:27.914Z,-14.88
2022-11-21T01:33:59.724Z,-14.92
2022-11-21T01:36:30.954Z,-14.91
2022-11-21T01:39:02.790Z,-14.97
2022-11-21T01:41:35.821Z,-14.98
2022-11-21T01:44:19.791Z,-15.02
2022-11-21T01:46:49.706Z,-15.09
2022-11-21T01:49:21.173Z,-15.17
2022-11-21T01:52:02.178Z,-15.19
2022-11-21T01:55:09.651Z,-15.13
2022-11-21T01:57:45.753Z,-15.01
2022-11-21T02:00:18.232Z,-14.89
2022-11-21T02:02:52.260Z,-14.83
2022-11-21T02:05:26.350Z,-14.73
2022-11-21T02:08:01.985Z,-14.71
2022-11-21T02:10:30.826Z,-14.59
2022-11-21T02:13:01.108Z,-14.53
2022-11-21T02:15:30.765Z,-14.44
2022-11-21T02:17:59.619Z,-14.30
2022-11-21T02:20:29.938Z,-14.16
2022-11-21T02:23:30.983Z,-14.10
2022-11-21T02:26:00.359Z,-14.21
2022-11-21T02:28:30.153Z,-14.28
2022-11-21T02:30:58.958Z,-14.21
2022-11-21T02:33:27.810Z,-14.09
2022-11-21T02:36:02.803Z,-13.97
2022-11-21T02:38:38.256Z,-13.90
2022-11-21T02:41:27.019Z,-13.74
2022-11-21T02:44:06.463Z,-13.08
2022-11-21T02:46:36.694Z,-12.54
2022-11-21T02:49:08.881Z,-12.51
2022-11-21T02:51:37.692Z,-12.74
2022-11-21T02:54:06.454Z,-12.99
2022-11-21T02:56:35.378Z,-13.22
2022-11-21T02:59:04.531Z,-13.34
2022-11-21T03:01:33.667Z,-13.33
2022-11-21T03:04:02.753Z,-13.31
2022-11-21T03:06:31.665Z,-13.35
2022-11-21T03:09:00.365Z,-13.40
2022-11-21T03:11:29.130Z,-13.12
2022-11-21T03:13:57.862Z,-12.95
2022-11-21T03:16:26.678Z,-12.82
2022-11-21T03:18:55.439Z,-12.80
2022-11-21T03:21:24.289Z,-12.78
2022-11-21T03:23:52.929Z,-12.83
2022-11-21T03:26:21.637Z,-12.93
2022-11-21T03:28:50.388Z,-12.90
2022-11-21T03:31:19.128Z,-12.96
2022-11-21T03:33:47.946Z,-12.99
2022-11-21T03:36:16.808Z,-13.01
2022-11-21T03:38:45.649Z,-12.90
2022-11-21T03:41:34.502Z,-12.80
2022-11-21T03:44:08.659Z,-12.67
2022-11-21T03:46:42.356Z,-12.76
2022-11-21T03:49:12.525Z,-12.85
2022-11-21T03:51:41.402Z,-12.95
2022-11-21T03:54:10.243Z,-13.09
2022-11-21T03:56:40.505Z,-13.16
2022-11-21T03:59:09.261Z,-13.14
2022-11-21T04:01:38.723Z,-13.10
2022-11-21T04:04:07.764Z,-12.99
2022-11-21T04:06:36.627Z,-12.86
2022-11-21T04:09:05.606Z,-12.82
2022-11-21T04:11:34.364Z,-12.86
2022-11-21T04:14:03.182Z,-12.90
2022-11-21T04:16:31.945Z,-12.84
2022-11-21T04:19:00.719Z,-12.68
2022-11-21T04:21:29.585Z,-12.66
2022-11-21T04:23:58.357Z,-12.73
2022-11-21T04:26:27.244Z,-12.74
2022-11-21T04:28:56.046Z,-12.58
2022-11-21T04:31:24.806Z,-12.48
2022-11-21T04:33:53.594Z,-12.36
2022-11-21T04:36:22.284Z,-12.19
2022-11-21T04:38:51.122Z,-12.04
2022-11-21T04:41:19.859Z,-11.79
2022-11-21T04:43:48.648Z,-11.40
2022-11-21T04:46:17.343Z,-11.19
2022-11-21T04:48:46.119Z,-11.00
2022-11-21T04:51:14.963Z,-11.00
2022-11-21T04:53:43.793Z,-11.11
2022-11-21T04:56:16.893Z,-11.25
2022-11-21T04:58:45.804Z,-11.48
2022-11-21T05:01:15.583Z,-11.69
2022-11-21T05:03:44.589Z,-11.80
2022-11-21T05:06:13.337Z,-11.74
2022-11-21T05:08:42.091Z,-11.77
2022-11-21T05:11:29.391Z,-11.76
2022-11-21T05:13:58.297Z,-11.78
2022-11-21T05:16:27.195Z,-11.82
2022-11-21T05:18:56.103Z,-11.99
2022-11-21T05:21:24.937Z,-11.90
2022-11-21T05:23:53.724Z,-11.78
2022-11-21T05:26:22.564Z,-11.76
2022-11-21T05:28:51.346Z,-11.80
2022-11-21T05:31:20.190Z,-11.82
2022-11-21T05:33:48.972Z,-11.84
2022-11-21T05:36:17.823Z,-11.82
2022-11-21T05:38:46.588Z,-11.85
2022-11-21T05:41:15.403Z,-11.92
2022-11-21T05:43:47.084Z,-11.90
2022-11-21T05:46:18.651Z,-11.96
2022-11-21T05:48:48.892Z,-11.87
2022-11-21T05:51:18.904Z,-11.82
2022-11-21T05:53:48.615Z,-11.75
2022-11-21T05:56:19.529Z,-11.65
2022-11-21T05:58:48.598Z,-11.61
2022-11-21T06:01:37.890Z,-11.41
2022-11-21T06:04:07.526Z,-11.60
2022-11-21T06:06:36.911Z,-11.72
2022-11-21T06:09:05.906Z,-12.02
2022-11-21T06:11:34.645Z,-12.09
2022-11-21T06:14:03.482Z,-12.04
2022-11-21T06:16:32.375Z,-12.07
2022-11-21T06:19:01.132Z,-12.26
2022-11-21T06:21:30.549Z,-12.28
2022-11-21T06:23:59.705Z,-12.41
2022-11-21T06:26:29.253Z,-12.51
2022-11-21T06:28:58.028Z,-12.66
2022-11-21T06:31:28.357Z,-12.75
2022-11-21T06:34:00.520Z,-12.86
2022-11-21T06:36:29.315Z,-12.87
2022-11-21T06:38:58.066Z,-12.85
2022-11-21T06:41:30.754Z,-12.88
2022-11-21T06:44:03.652Z,-12.87
2022-11-21T06:46:32.399Z,-12.86
2022-11-21T06:49:01.221Z,-12.78
2022-11-21T06:51:30.189Z,-12.86
2022-11-21T06:54:00.079Z,-12.96
2022-11-21T06:56:30.876Z,-13.01
2022-11-21T06:58:59.922Z,-13.10
2022-11-21T07:01:29.552Z,-13.06
2022-11-21T07:03:58.569Z,-12.88
2022-11-21T07:06:27.833Z,-12.68
2022-11-21T07:09:32.302Z,-12.58
2022-11-21T07:11:45.474Z,-12.38
2022-11-21T07:14:14.297Z,-12.10
2022-11-21T07:16:43.157Z,-11.92
2022-11-21T07:19:12.433Z,-11.80
2022-11-21T07:21:41.226Z,-11.81
2022-11-21T07:24:10.095Z,-11.90
2022-11-21T07:26:38.890Z,-11.97
2022-11-21T07:29:07.667Z,-12.09
2022-11-21T07:31:36.461Z,-12.24
2022-11-21T07:34:05.197Z,-12.41
2022-11-21T07:36:34.120Z,-12.44
2022-11-21T07:39:03.565Z,-12.42
2022-11-21T07:41:32.322Z,-12.43
2022-11-21T07:44:01.149Z,-12.51
2022-11-21T07:46:29.966Z,-12.56
2022-11-21T07:49:03.104Z,-12.49
2022-11-21T07:51:32.400Z,-10.97
2022-11-21T07:54:01.196Z,-9.05
2022-11-21T07:56:30.118Z,-7.66
2022-11-21T07:58:58.938Z,-6.66
2022-11-21T08:01:28.753Z,-6.18
2022-11-21T08:03:57.744Z,-6.11
2022-11-21T08:06:26.672Z,-5.73
2022-11-21T08:08:55.756Z,-5.72
2022-11-21T08:11:24.534Z,-6.50
2022-11-21T08:13:53.305Z,-7.62
2022-11-21T08:16:23.363Z,-8.52
2022-11-21T08:18:52.161Z,-9.32
2022-11-21T08:21:20.995Z,-9.63
2022-11-21T08:23:50.114Z,-9.78
2022-11-21T08:26:19.130Z,-9.66
2022-11-21T08:28:48.009Z,-9.46
2022-11-21T08:31:16.838Z,-9.61
2022-11-21T08:33:45.691Z,-10.03
2022-11-21T08:36:14.579Z,-10.55
2022-11-21T08:38:43.380Z,-10.95
2022-11-21T08:41:31.734Z,-11.57
2022-11-21T08:44:00.538Z,-12.21
2022-11-21T08:46:30.711Z,-12.69
2022-11-21T08:48:59.485Z,-13.03
2022-11-21T08:51:28.336Z,-13.34
2022-11-21T08:53:57.224Z,-13.55
2022-11-21T08:56:26.306Z,-13.80
2022-11-21T08:58:55.383Z,-13.95
2022-11-21T09:01:25.506Z,-14.09
2022-11-21T09:03:54.599Z,-14.20
2022-11-21T09:06:23.416Z,-14.31
2022-11-21T09:08:52.260Z,-14.37
2022-11-21T09:11:21.155Z,-14.47
2022-11-21T09:14:09.806Z,-14.60
2022-11-21T09:17:01.889Z,-14.68
2022-11-21T09:19:31.406Z,-14.86
2022-11-21T09:22:00.294Z,-14.88
2022-11-21T09:24:29.142Z,-14.93
2022-11-21T09:26:58.004Z,-15.05
2022-11-21T09:29:27.079Z,-15.08
2022-11-21T09:31:56.110Z,-15.15
2022-11-21T09:34:25.910Z,-15.19
2022-11-21T09:36:56.110Z,-15.22
2022-11-21T09:39:25.060Z,-15.20
2022-11-21T09:42:27.756Z,-15.26
2022-11-21T09:45:37.948Z,-15.30
2022-11-21T09:48:16.684Z,-15.27
2022-11-21T09:50:54.800Z,-15.34
2022-11-21T09:53:29.685Z,-15.36
2022-11-21T09:56:11.650Z,-15.31
2022-11-21T09:58:44.980Z,-15.33
2022-11-21T10:01:15.687Z,-15.31
2022-11-21T10:03:47.742Z,-15.29
2022-11-21T10:06:27.714Z,-15.32
2022-11-21T10:09:03.016Z,-15.34
2022-11-21T10:12:21.113Z,-15.37
2022-11-21T10:15:08.149Z,-15.43
2022-11-21T10:17:36.688Z,-15.45
2022-11-21T10:20:29.776Z,-15.48
2022-11-21T10:23:10.456Z,-15.51
2022-11-21T10:25:40.197Z,-15.53
2022-11-21T10:28:28.554Z,-15.53
2022-11-21T10:30:59.799Z,-15.55
2022-11-21T10:33:34.419Z,-15.48
2022-11-21T10:36:15.343Z,-15.45
2022-11-21T10:38:46.077Z,-15.45
2022-11-21T10:41:47.963Z,-15.35
2022-11-21T10:44:47.651Z,-15.36
2022-11-21T10:47:38.225Z,-15.30
2022-11-21T10:50:09.951Z,-15.30
2022-11-21T10:52:48.237Z,-15.26
2022-11-21T10:55:37.266Z,-15.21
2022-11-21T11:01:05.932Z,-15.11
2022-11-21T11:03:34.770Z,-15.07
2022-11-21T11:06:03.554Z,-15.05
2022-11-21T11:08:52.078Z,-15.06
2022-11-21T11:11:26.636Z,-15.07
2022-11-21T11:14:15.207Z,-15.10
2022-11-21T11:16:46.512Z,-15.15
2022-11-21T11:19:15.200Z,-15.16
2022-11-21T11:21:46.107Z,-15.19
2022-11-21T11:24:14.715Z,-15.17
2022-11-21T11:30:12.401Z,-15.16
2022-11-21T11:32:42.090Z,-15.20
2022-11-21T11:35:14.270Z,-15.09
2022-11-21T11:37:45.465Z,-15.06
2022-11-21T11:40:23.108Z,-14.95
2022-11-21T11:43:47.563Z,-14.85
2022-11-21T11:46:48.567Z,-14.83
2022-11-21T11:49:23.918Z,-14.83
2022-11-21T11:54:51.467Z,-14.90
2022-11-21T11:57:20.856Z,-14.91
2022-11-21T12:03:11.850Z,-14.73
2022-11-21T12:05:57.523Z,-14.74
2022-11-21T12:08:41.932Z,-14.76
2022-11-21T12:11:48.467Z,-14.74
2022-11-21T12:17:49.277Z,-14.75
2022-11-21T12:20:35.111Z,-14.75
2022-11-21T12:23:07.512Z,-14.85
2022-11-21T12:28:52.084Z,-14.92
2022-11-21T12:31:37.256Z,-14.96
2022-11-21T12:34:30.229Z,-14.96
2022-11-21T12:37:48.492Z,-14.97
2022-11-21T12:40:44.482Z,-14.98
2022-11-21T12:43:12.792Z,-14.91
2022-11-21T12:45:56.133Z,-14.90
2022-11-21T12:48:56.017Z,-14.89
2022-11-21T12:52:25.019Z,-14.84
2022-11-21T12:55:12.107Z,-14.78
2022-11-21T13:01:00.481Z,-14.72
2022-11-21T13:03:57.829Z,-14.83
2022-11-21T13:06:42.319Z,-14.74
2022-11-21T13:09:17.109Z,-14.73
2022-11-21T13:12:29.070Z,-14.81
2022-11-21T13:15:32.873Z,-14.76
2022-11-21T13:18:27.067Z,-14.72
2022-11-21T13:20:55.928Z,-14.80
2022-11-21T13:23:43.025Z,-14.69
2022-11-21T13:26:26.789Z,-14.67
2022-11-21T13:32:41.855Z,-14.69
2022-11-21T13:35:22.518Z,-14.69
2022-11-21T13:37:51.311Z,-14.70
2022-11-21T13:40:30.350Z,-14.68
2022-11-21T13:43:32.759Z,-14.65
2022-11-21T13:46:02.379Z,-14.72
2022-11-21T13:49:14.041Z,-14.62
2022-11-21T13:52:05.987Z,-14.59
2022-11-21T13:55:00.933Z,-14.55
2022-11-21T13:57:53.371Z,-14.46
2022-11-21T14:00:56.182Z,-14.42
2022-11-21T14:04:03.160Z,-14.45
2022-11-21T14:07:17.630Z,-14.45
2022-11-21T14:09:51.985Z,-14.57
2022-11-21T14:12:37.129Z,-14.45
2022-11-21T14:15:13.975Z,-14.44
2022-11-21T14:17:48.658Z,-14.45
2022-11-21T14:21:09.258Z,-14.46
2022-11-21T14:23:47.100Z,-14.46
2022-11-21T14:26:20.671Z,-14.43
2022-11-21T14:28:49.733Z,-14.41
2022-11-21T14:31:37.080Z,-14.58
2022-11-21T14:34:05.831Z,-14.38
2022-11-21T14:36:34.536Z,-14.37
2022-11-21T14:42:12.612Z,-14.43
2022-11-21T14:44:41.622Z,-14.46
2022-11-21T14:47:25.662Z,-14.48
2022-11-21T14:50:00.837Z,-14.54
2022-11-21T14:52:34.795Z,-14.58
2022-11-21T14:55:42.254Z,-14.62
2022-11-21T14:58:17.014Z,-14.67
2022-11-21T15:01:20.102Z,-14.69
2022-11-21T15:03:57.380Z,-14.77
2022-11-21T15:06:30.421Z,-14.72
2022-11-21T15:12:10.106Z,-14.71
2022-11-21T15:15:19.709Z,-14.71
2022-11-21T15:23:30.566Z,-14.70
2022-11-21T15:28:57.333Z,-14.63
2022-11-21T15:31:26.209Z,-14.57
2022-11-21T15:37:16.179Z,-14.47
2022-11-21T15:39:48.044Z,-14.53
2022-11-21T15:42:34.878Z,-14.49
2022-11-21T15:45:19.898Z,-14.46
2022-11-21T15:47:49.959Z,-14.43
2022-11-21T15:50:22.888Z,-14.37
2022-11-21T15:52:53.099Z,-14.31
2022-11-21T15:55:26.811Z,-14.29
2022-11-21T15:57:15.929Z,-14.71
2022-11-21T16:00:41.183Z,-14.21
2022-11-21T16:03:09.971Z,-14.21
2022-11-21T16:05:39.448Z,-14.16
2022-11-21T16:08:08.083Z,-14.17
2022-11-21T16:10:36.769Z,-14.16
2022-11-21T16:13:05.537Z,-14.14
2022-11-21T16:15:35.505Z,-14.07
2022-11-21T16:18:04.207Z,-14.11
2022-11-21T16:20:32.881Z,-14.16
2022-11-21T16:23:01.595Z,-14.14
2022-11-21T16:25:30.210Z,-14.14
2022-11-21T16:28:02.895Z,-14.14
2022-11-21T16:30:34.508Z,-14.18
2022-11-21T16:33:03.247Z,-14.25
2022-11-21T16:35:32.923Z,-14.41
2022-11-21T16:38:01.817Z,-14.52
2022-11-21T16:40:30.433Z,-14.56
2022-11-21T16:43:11.178Z,-14.73
2022-11-21T16:45:40.381Z,-14.88
2022-11-21T16:48:09.021Z,-15.01
2022-11-21T16:50:37.718Z,-15.10
2022-11-21T16:53:06.397Z,-15.20
2022-11-21T16:55:35.289Z,-15.25
2022-11-21T16:58:04.078Z,-15.30
2022-11-21T17:03:39.368Z,-15.34
2022-11-21T17:06:09.439Z,-15.35
2022-11-21T17:08:38.971Z,-15.35
2022-11-21T17:11:32.268Z,-15.32
2022-11-21T17:14:03.930Z,-15.33
2022-11-21T17:16:34.861Z,-15.38
2022-11-21T17:19:05.097Z,-15.40
2022-11-21T17:21:34.748Z,-15.44
2022-11-21T17:24:03.491Z,-15.47
2022-11-21T17:26:32.143Z,-15.54
2022-11-21T17:29:03.935Z,-15.49
2022-11-21T17:31:33.402Z,-15.49
2022-11-21T17:34:02.502Z,-15.49
2022-11-21T17:36:34.835Z,-15.48
2022-11-21T17:39:04.093Z,-15.52
2022-11-21T17:41:32.846Z,-15.51
2022-11-21T17:44:02.088Z,-15.51
2022-11-21T17:46:30.756Z,-15.56
2022-11-21T17:49:00.093Z,-15.65
2022-11-21T17:51:32.832Z,-15.61
2022-11-21T17:54:02.605Z,-15.62
2022-11-21T17:56:34.785Z,-15.57
2022-11-21T17:59:04.898Z,-15.54
2022-11-21T18:01:35.151Z,-15.57
2022-11-21T18:04:10.324Z,-15.53
2022-11-21T18:06:43.837Z,-15.55
2022-11-21T18:09:13.603Z,-15.56
2022-11-21T18:11:42.408Z,-15.57
2022-11-21T18:14:13.324Z,-15.59
2022-11-21T18:16:47.640Z,-15.63
2022-11-21T18:19:19.682Z,-15.67
2022-11-21T18:21:48.546Z,-15.66
2022-11-21T18:24:17.134Z,-15.69
2022-11-21T18:26:46.979Z,-15.70
2022-11-21T18:32:05.256Z,-15.69
2022-11-21T18:34:33.974Z,-15.69
2022-11-21T18:37:02.619Z,-15.62
2022-11-21T18:39:31.480Z,-15.66
2022-11-21T18:42:00.307Z,-15.53
2022-11-21T18:44:28.939Z,-15.49
2022-11-21T18:46:57.604Z,-15.49
2022-11-21T18:49:26.537Z,-15.53
2022-11-21T18:51:55.426Z,-15.53
2022-11-21T18:54:24.010Z,-15.56
2022-11-21T18:56:53.050Z,-15.58
2022-11-21T18:59:21.680Z,-15.69
2022-11-21T19:01:50.981Z,-15.54
2022-11-21T19:04:19.719Z,-15.52
2022-11-21T19:06:48.409Z,-15.51
2022-11-21T19:09:17.094Z,-15.50
2022-11-21T19:11:45.812Z,-15.54
2022-11-21T19:14:14.598Z,-15.48
2022-11-21T19:16:43.279Z,-15.40
2022-11-21T19:22:02.167Z,-15.21
2022-11-21T19:24:30.858Z,-15.13
2022-11-21T19:27:00.478Z,-15.12
2022-11-21T19:29:30.821Z,-15.20
2022-11-21T19:31:59.637Z,-15.17
2022-11-21T19:34:28.191Z,-15.17
2022-11-21T19:36:56.863Z,-15.25
2022-11-21T19:39:25.579Z,-15.47
2022-11-21T19:41:54.538Z,-15.51
2022-11-21T19:44:23.236Z,-15.62
2022-11-21T19:46:51.831Z,-15.70
2022-11-21T19:49:20.677Z,-15.75
2022-11-21T19:51:49.288Z,-15.79
2022-11-21T19:54:17.994Z,-15.87
2022-11-21T19:56:46.718Z,-15.87
2022-11-21T19:59:15.813Z,-15.95
2022-11-21T20:01:51.059Z,-15.92
2022-11-21T20:04:21.010Z,-15.91
2022-11-21T20:06:49.811Z,-15.91
2022-11-21T20:09:25.178Z,-15.90
2022-11-21T20:11:53.835Z,-15.91
2022-11-21T20:14:23.172Z,-15.91
2022-11-21T20:16:53.492Z,-15.89
2022-11-21T20:19:24.585Z,-15.90
2022-11-21T20:21:53.648Z,-15.91
2022-11-21T20:24:22.294Z,-15.88
2022-11-21T20:26:50.937Z,-15.83
2022-11-21T20:29:19.638Z,-15.83
2022-11-21T20:31:48.729Z,-15.82
2022-11-21T20:34:17.456Z,-15.82
2022-11-21T20:36:47.233Z,-15.81
2022-11-21T20:39:20.059Z,-15.91
2022-11-21T20:41:49.073Z,-15.99
2022-11-21T20:45:20.350Z,-16.02
2022-11-21T20:47:12.701Z,-16.11
2022-11-21T20:49:41.325Z,-16.29
2022-11-21T20:53:43.780Z,-16.38
2022-11-21T20:54:58.663Z,-16.55
2022-11-21T20:57:28.026Z,-16.65
2022-11-21T20:59:56.674Z,-16.78
2022-11-21T21:02:25.593Z,-16.87
2022-11-21T21:04:54.342Z,-16.94
2022-11-21T21:07:23.094Z,-16.98
2022-11-21T21:09:51.831Z,-17.09
2022-11-21T21:12:20.454Z,-17.13
2022-11-21T21:14:49.050Z,-17.22
2022-11-21T21:17:17.686Z,-17.30
2022-11-21T21:19:46.250Z,-17.35
2022-11-21T21:22:15.113Z,-17.38
2022-11-21T21:24:43.740Z,-17.43
2022-11-21T21:27:12.403Z,-17.44
2022-11-21T21:29:41.077Z,-17.49
2022-11-21T21:32:10.065Z,-17.52
2022-11-21T21:34:38.813Z,-17.53
2022-11-21T21:37:07.647Z,-17.53
2022-11-21T21:39:36.311Z,-17.52
2022-11-21T21:42:05.058Z,-17.57
2022-11-21T21:44:33.965Z,-17.59
2022-11-21T21:47:02.910Z,-17.63
2022-11-21T21:49:31.610Z,-17.70
2022-11-21T21:52:00.382Z,-17.69
2022-11-21T21:54:30.267Z,-17.78
2022-11-21T21:56:59.206Z,-17.76
2022-11-21T21:59:27.869Z,-17.77
2022-11-21T22:01:57.098Z,-17.81
2022-11-21T22:04:26.490Z,-17.86
2022-11-21T22:06:55.163Z,-17.95
2022-11-21T22:09:23.821Z,-17.94
2022-11-21T22:11:54.502Z,-17.96
2022-11-21T22:14:23.161Z,-17.95
2022-11-21T22:16:52.551Z,-18.00
2022-11-21T22:19:22.130Z,-18.09
2022-11-21T22:21:50.815Z,-18.12
2022-11-21T22:24:27.466Z,-18.19
2022-11-21T22:26:56.693Z,-18.26
2022-11-21T22:29:25.476Z,-18.30
2022-11-21T22:31:54.420Z,-18.31
2022-11-21T22:34:23.307Z,-18.30
2022-11-21T22:36:52.072Z,-18.35
2022-11-21T22:39:21.556Z,-18.43
2022-11-21T22:41:50.226Z,-18.37
2022-11-21T22:44:19.577Z,-18.40
2022-11-21T22:46:48.394Z,-18.46
2022-11-21T22:49:17.111Z,-18.50
2022-11-21T22:51:45.868Z,-18.57
2022-11-21T22:54:14.579Z,-18.60
2022-11-21T22:56:43.243Z,-18.67
2022-11-21T22:59:14.394Z,-18.69
2022-11-21T23:01:43.690Z,-18.74
2022-11-21T23:04:17.511Z,-18.78
2022-11-21T23:06:46.513Z,-18.82
2022-11-21T23:09:15.186Z,-18.81
2022-11-21T23:11:43.947Z,-18.81
2022-11-21T23:14:12.570Z,-18.84
2022-11-21T23:16:41.266Z,-18.90
2022-11-21T23:19:09.991Z,-19.04
2022-11-21T23:21:38.657Z,-18.98
2022-11-21T23:24:07.463Z,-18.98
2022-11-21T23:26:36.216Z,-18.98
2022-11-21T23:29:08.500Z,-19.03
2022-11-21T23:31:37.898Z,-19.07
2022-11-21T23:34:06.552Z,-19.12
2022-11-21T23:36:35.308Z,-19.19
2022-11-21T23:39:05.188Z,-19.16
2022-11-21T23:41:33.860Z,-19.19
2022-11-21T23:44:02.610Z,-19.20
2022-11-21T23:46:31.622Z,-19.22
2022-11-21T23:49:00.310Z,-19.23
2022-11-21T23:51:28.938Z,-19.26
2022-11-21T23:53:57.643Z,-19.29
2022-11-21T23:56:26.402Z,-19.33
2022-11-21T23:58:55.064Z,-19.30
